SIA361 WSSS-WIII
Flight info
| Callsign | SIA361 |
|---|---|
| Flight time | 1h 24m |
| Altitude | 41000 |
| Route | ANITO7A ANITO B470 BUNIK |
| Aircraft | A359/H-SDE2E3GHIJ3J4J5LM1ORWXY/LB1D1 |
Departure
| Time | 2026-05-06 11:01 |
|---|---|
| Airport | Singapore Changi Airport (WSSS) |
Arrival
| Time | 2026-05-06 12:25 |
|---|---|
| Airport | Soekarno-Hatta International Airport (WIII) |
| Time | Latitude | Longitude | Altitude | Speed | Heading |
|---|---|---|---|---|---|
| 2026-05-06 10:20 | 1.35041 | 103.98825 | 31 ft | 0 kts | 293° |
| 2026-05-06 10:44 | 1.35039 | 103.98829 | 31 ft | 2 kts | 293° |
| 2026-05-06 10:45 | 1.35035 | 103.98838 | 30 ft | 1 kts | 293° |
| 2026-05-06 10:45 | 1.35031 | 103.98847 | 29 ft | 1 kts | 293° |
| 2026-05-06 10:45 | 1.35027 | 103.98857 | 29 ft | 2 kts | 289° |
| 2026-05-06 10:45 | 1.35024 | 103.98867 | 29 ft | 3 kts | 289° |
| 2026-05-06 10:46 | 1.35018 | 103.98885 | 29 ft | 3 kts | 267° |
| 2026-05-06 10:46 | 1.35023 | 103.98905 | 27 ft | 3 kts | 224° |
| 2026-05-06 10:46 | 1.35038 | 103.98915 | 28 ft | 1 kts | 195° |
| 2026-05-06 10:46 | 1.35054 | 103.98920 | 28 ft | 3 kts | 201° |
| 2026-05-06 10:47 | 1.35072 | 103.98926 | 31 ft | 3 kts | 202° |
| 2026-05-06 10:47 | 1.35076 | 103.98928 | 31 ft | 0 kts | 204° |
| 2026-05-06 10:51 | 1.35052 | 103.98917 | 29 ft | 12 kts | 203° |
| 2026-05-06 10:52 | 1.34954 | 103.98875 | 31 ft | 15 kts | 203° |
| 2026-05-06 10:52 | 1.34858 | 103.98859 | 31 ft | 14 kts | 149° |
| 2026-05-06 10:52 | 1.34807 | 103.98941 | 31 ft | 16 kts | 114° |
| 2026-05-06 10:52 | 1.34751 | 103.99055 | 32 ft | 18 kts | 132° |
| 2026-05-06 10:53 | 1.34725 | 103.99069 | 32 ft | 1 kts | 174° |
| 2026-05-06 10:53 | 1.34679 | 103.99058 | 33 ft | 13 kts | 197° |
| 2026-05-06 10:53 | 1.34559 | 103.99009 | 33 ft | 24 kts | 202° |
| 2026-05-06 10:53 | 1.34381 | 103.98936 | 33 ft | 29 kts | 203° |
| 2026-05-06 10:54 | 1.34191 | 103.98856 | 33 ft | 30 kts | 202° |
| 2026-05-06 10:54 | 1.33993 | 103.98773 | 32 ft | 32 kts | 202° |
| 2026-05-06 10:54 | 1.33785 | 103.98685 | 32 ft | 34 kts | 203° |
| 2026-05-06 10:54 | 1.33564 | 103.98593 | 32 ft | 35 kts | 202° |
| 2026-05-06 10:55 | 1.33333 | 103.98497 | 32 ft | 36 kts | 202° |
| 2026-05-06 10:55 | 1.33102 | 103.98399 | 32 ft | 28 kts | 202° |
| 2026-05-06 10:55 | 1.32993 | 103.98358 | 32 ft | 13 kts | 185° |
| 2026-05-06 10:55 | 1.32959 | 103.98376 | 33 ft | 0 kts | 134° |
| 2026-05-06 10:56 | 1.32949 | 103.98393 | 33 ft | 7 kts | 118° |
| 2026-05-06 10:56 | 1.32920 | 103.98451 | 34 ft | 12 kts | 114° |
| 2026-05-06 10:56 | 1.32934 | 103.98517 | 35 ft | 10 kts | 40° |
| 2026-05-06 10:57 | 1.33010 | 103.98555 | 35 ft | 14 kts | 23° |
| 2026-05-06 10:57 | 1.33027 | 103.98562 | 35 ft | 0 kts | 23° |
| 2026-05-06 11:00 | 1.33077 | 103.98583 | 35 ft | 23 kts | 22° |
| 2026-05-06 11:00 | 1.33447 | 103.98739 | 33 ft | 97 kts | 23° |
| 2026-05-06 11:00 | 1.34285 | 103.99091 | 37 ft | 162 kts | 24° |
| 2026-05-06 11:01 | 1.35438 | 103.99572 | 392 ft | 189 kts | 22° |
| 2026-05-06 11:01 | 1.36669 | 104.00104 | 1032 ft | 199 kts | 24° |
| 2026-05-06 11:01 | 1.37963 | 104.00694 | 1680 ft | 208 kts | 25° |
| 2026-05-06 11:01 | 1.39359 | 104.01298 | 1960 ft | 231 kts | 22° |
| 2026-05-06 11:02 | 1.40921 | 104.01935 | 2249 ft | 253 kts | 22° |
| 2026-05-06 11:02 | 1.42586 | 104.02620 | 2728 ft | 264 kts | 22° |
| 2026-05-06 11:02 | 1.44302 | 104.03335 | 3392 ft | 269 kts | 22° |
| 2026-05-06 11:02 | 1.45997 | 104.04144 | 4069 ft | 272 kts | 32° |
| 2026-05-06 11:03 | 1.47332 | 104.05470 | 4750 ft | 274 kts | 59° |
| 2026-05-06 11:03 | 1.47900 | 104.07270 | 5389 ft | 276 kts | 87° |
| 2026-05-06 11:03 | 1.47568 | 104.09146 | 6024 ft | 277 kts | 112° |
| 2026-05-06 11:03 | 1.46776 | 104.10905 | 6653 ft | 279 kts | 116° |
| 2026-05-06 11:04 | 1.45931 | 104.12653 | 7267 ft | 280 kts | 116° |
| 2026-05-06 11:04 | 1.45088 | 104.14416 | 7900 ft | 282 kts | 115° |
| 2026-05-06 11:04 | 1.44249 | 104.16192 | 8511 ft | 283 kts | 115° |
| 2026-05-06 11:04 | 1.43422 | 104.17954 | 8902 ft | 285 kts | 115° |
| 2026-05-06 11:05 | 1.42586 | 104.19759 | 9002 ft | 287 kts | 115° |
| 2026-05-06 11:05 | 1.41745 | 104.21572 | 9004 ft | 288 kts | 115° |
| 2026-05-06 11:05 | 1.40901 | 104.23393 | 9004 ft | 289 kts | 115° |
| 2026-05-06 11:05 | 1.40054 | 104.25222 | 9007 ft | 290 kts | 115° |
| 2026-05-06 11:06 | 1.39207 | 104.27053 | 9008 ft | 290 kts | 115° |
| 2026-05-06 11:06 | 1.38362 | 104.28879 | 9004 ft | 290 kts | 115° |
| 2026-05-06 11:06 | 1.37514 | 104.30710 | 9005 ft | 290 kts | 115° |
| 2026-05-06 11:06 | 1.36668 | 104.32540 | 9000 ft | 290 kts | 115° |
| 2026-05-06 11:07 | 1.35822 | 104.34368 | 9005 ft | 290 kts | 115° |
| 2026-05-06 11:07 | 1.34976 | 104.36196 | 9007 ft | 290 kts | 115° |
| 2026-05-06 11:07 | 1.34129 | 104.38022 | 9008 ft | 290 kts | 115° |
| 2026-05-06 11:07 | 1.33062 | 104.39726 | 9001 ft | 290 kts | 132° |
| 2026-05-06 11:08 | 1.31414 | 104.40858 | 9006 ft | 290 kts | 158° |
| 2026-05-06 11:08 | 1.29479 | 104.41446 | 8999 ft | 291 kts | 165° |
| 2026-05-06 11:08 | 1.27514 | 104.41933 | 9005 ft | 291 kts | 165° |
| 2026-05-06 11:08 | 1.25542 | 104.42424 | 9003 ft | 292 kts | 165° |
| 2026-05-06 11:09 | 1.23577 | 104.42921 | 9008 ft | 292 kts | 165° |
| 2026-05-06 11:09 | 1.21614 | 104.43423 | 9009 ft | 292 kts | 165° |
| 2026-05-06 11:09 | 1.19645 | 104.43929 | 9006 ft | 291 kts | 165° |
| 2026-05-06 11:09 | 1.17679 | 104.44435 | 9010 ft | 292 kts | 165° |
| 2026-05-06 11:10 | 1.15713 | 104.44943 | 9011 ft | 292 kts | 165° |
| 2026-05-06 11:10 | 1.13749 | 104.45450 | 9011 ft | 292 kts | 165° |
| 2026-05-06 11:10 | 1.11784 | 104.45958 | 9016 ft | 292 kts | 165° |
| 2026-05-06 11:10 | 1.09823 | 104.46477 | 9055 ft | 291 kts | 164° |
| 2026-05-06 11:11 | 1.07868 | 104.47022 | 9414 ft | 293 kts | 163° |
| 2026-05-06 11:11 | 1.05925 | 104.47567 | 10001 ft | 294 kts | 163° |
| 2026-05-06 11:11 | 1.03931 | 104.48124 | 10399 ft | 304 kts | 163° |
| 2026-05-06 11:11 | 1.01850 | 104.48705 | 10647 ft | 317 kts | 163° |
| 2026-05-06 11:12 | 0.99674 | 104.49311 | 10882 ft | 330 kts | 163° |
| 2026-05-06 11:12 | 0.97423 | 104.49937 | 11118 ft | 342 kts | 163° |
| 2026-05-06 11:12 | 0.95100 | 104.50583 | 11408 ft | 350 kts | 163° |
| 2026-05-06 11:12 | 0.92731 | 104.51240 | 11792 ft | 355 kts | 163° |
| 2026-05-06 11:13 | 0.90339 | 104.51905 | 12213 ft | 358 kts | 163° |
| 2026-05-06 11:13 | 0.87928 | 104.52574 | 12647 ft | 361 kts | 163° |
| 2026-05-06 11:13 | 0.85498 | 104.53249 | 13072 ft | 364 kts | 163° |
| 2026-05-06 11:13 | 0.83052 | 104.53929 | 13494 ft | 366 kts | 163° |
| 2026-05-06 11:14 | 0.81422 | 104.54382 | 13756 ft | 368 kts | 163° |
| 2026-05-06 11:14 | 0.78107 | 104.55303 | 14231 ft | 371 kts | 163° |
| 2026-05-06 11:14 | 0.76454 | 104.55762 | 14479 ft | 373 kts | 163° |
| 2026-05-06 11:14 | 0.73953 | 104.56457 | 14854 ft | 375 kts | 163° |
| 2026-05-06 11:15 | 0.71432 | 104.57158 | 15210 ft | 377 kts | 163° |
| 2026-05-06 11:15 | 0.68894 | 104.57863 | 15595 ft | 379 kts | 163° |
| 2026-05-06 11:15 | 0.66349 | 104.58571 | 15963 ft | 381 kts | 163° |
| 2026-05-06 11:15 | 0.63795 | 104.59303 | 16339 ft | 383 kts | 162° |
| 2026-05-06 11:16 | 0.61232 | 104.60071 | 16700 ft | 385 kts | 162° |
| 2026-05-06 11:16 | 0.58659 | 104.60843 | 17059 ft | 387 kts | 162° |
| 2026-05-06 11:16 | 0.56067 | 104.61618 | 17433 ft | 389 kts | 162° |
| 2026-05-06 11:16 | 0.53467 | 104.62394 | 17764 ft | 392 kts | 162° |
| 2026-05-06 11:17 | 0.50845 | 104.63175 | 18116 ft | 394 kts | 162° |
| 2026-05-06 11:17 | 0.48212 | 104.63959 | 18410 ft | 396 kts | 162° |
| 2026-05-06 11:17 | 0.45565 | 104.64749 | 18710 ft | 398 kts | 162° |
| 2026-05-06 11:17 | 0.42902 | 104.65539 | 19009 ft | 400 kts | 162° |
| 2026-05-06 11:18 | 0.40227 | 104.66329 | 19292 ft | 402 kts | 162° |
| 2026-05-06 11:18 | 0.37539 | 104.67123 | 19583 ft | 404 kts | 162° |
| 2026-05-06 11:18 | 0.34839 | 104.67922 | 19870 ft | 406 kts | 162° |
| 2026-05-06 11:18 | 0.32131 | 104.68723 | 20148 ft | 408 kts | 162° |
| 2026-05-06 11:19 | 0.29438 | 104.69521 | 20437 ft | 409 kts | 162° |
| 2026-05-06 11:19 | 0.26701 | 104.70331 | 20712 ft | 411 kts | 162° |
| 2026-05-06 11:19 | 0.23953 | 104.71145 | 20990 ft | 413 kts | 162° |
| 2026-05-06 11:19 | 0.21155 | 104.71973 | 21267 ft | 415 kts | 162° |
| 2026-05-06 11:20 | 0.18381 | 104.72795 | 21537 ft | 417 kts | 162° |
| 2026-05-06 11:20 | 0.15632 | 104.73609 | 21803 ft | 418 kts | 162° |
| 2026-05-06 11:20 | 0.12837 | 104.74441 | 22067 ft | 420 kts | 161° |
| 2026-05-06 11:20 | 0.10022 | 104.75278 | 22329 ft | 422 kts | 161° |
| 2026-05-06 11:21 | 0.07207 | 104.76112 | 22582 ft | 424 kts | 161° |
| 2026-05-06 11:21 | 0.04372 | 104.76953 | 22837 ft | 426 kts | 161° |
| 2026-05-06 11:21 | 0.01526 | 104.77798 | 23093 ft | 427 kts | 161° |
| 2026-05-06 11:21 | -0.01328 | 104.78645 | 23360 ft | 429 kts | 162° |
| 2026-05-06 11:22 | -0.04193 | 104.79495 | 23587 ft | 430 kts | 162° |
| 2026-05-06 11:22 | -0.07066 | 104.80348 | 23808 ft | 432 kts | 162° |
| 2026-05-06 11:22 | -0.09954 | 104.81206 | 24034 ft | 433 kts | 162° |
| 2026-05-06 11:22 | -0.12847 | 104.82065 | 24261 ft | 435 kts | 162° |
| 2026-05-06 11:23 | -0.15750 | 104.82927 | 24487 ft | 436 kts | 162° |
| 2026-05-06 11:23 | -0.18661 | 104.83792 | 24716 ft | 437 kts | 162° |
| 2026-05-06 11:23 | -0.21590 | 104.84661 | 24949 ft | 439 kts | 162° |
| 2026-05-06 11:23 | -0.24515 | 104.85530 | 25182 ft | 440 kts | 162° |
| 2026-05-06 11:24 | -0.27418 | 104.86514 | 25408 ft | 440 kts | 156° |
| 2026-05-06 11:24 | -0.30144 | 104.87899 | 25650 ft | 440 kts | 147° |
| 2026-05-06 11:24 | -0.32740 | 104.89520 | 25883 ft | 441 kts | 145° |
| 2026-05-06 11:24 | -0.35292 | 104.91226 | 26127 ft | 442 kts | 144° |
| 2026-05-06 11:25 | -0.37832 | 104.92976 | 26360 ft | 444 kts | 144° |
| 2026-05-06 11:25 | -0.40376 | 104.94739 | 26612 ft | 445 kts | 144° |
| 2026-05-06 11:25 | -0.42927 | 104.96501 | 26870 ft | 447 kts | 144° |
| 2026-05-06 11:25 | -0.45494 | 104.98260 | 27121 ft | 448 kts | 144° |
| 2026-05-06 11:26 | -0.48075 | 105.00019 | 27362 ft | 450 kts | 144° |
| 2026-05-06 11:26 | -0.50671 | 105.01779 | 27624 ft | 452 kts | 144° |
| 2026-05-06 11:26 | -0.53283 | 105.03547 | 27885 ft | 453 kts | 144° |
| 2026-05-06 11:26 | -0.55897 | 105.05314 | 28152 ft | 455 kts | 144° |
| 2026-05-06 11:27 | -0.58522 | 105.07089 | 28413 ft | 457 kts | 144° |
| 2026-05-06 11:27 | -0.61131 | 105.08852 | 28669 ft | 458 kts | 144° |
| 2026-05-06 11:27 | -0.63811 | 105.10665 | 28937 ft | 460 kts | 144° |
| 2026-05-06 11:27 | -0.66430 | 105.12437 | 29186 ft | 462 kts | 144° |
| 2026-05-06 11:28 | -0.69098 | 105.14242 | 29453 ft | 464 kts | 144° |
| 2026-05-06 11:28 | -0.71773 | 105.16052 | 29710 ft | 465 kts | 144° |
| 2026-05-06 11:28 | -0.74461 | 105.17871 | 29971 ft | 467 kts | 144° |
| 2026-05-06 11:28 | -0.77158 | 105.19697 | 30180 ft | 470 kts | 144° |
| 2026-05-06 11:29 | -0.79873 | 105.21534 | 30414 ft | 472 kts | 144° |
| 2026-05-06 11:29 | -0.82592 | 105.23374 | 30654 ft | 474 kts | 144° |
| 2026-05-06 11:29 | -0.85327 | 105.25225 | 30896 ft | 476 kts | 144° |
| 2026-05-06 11:29 | -0.88074 | 105.27084 | 31135 ft | 478 kts | 144° |
| 2026-05-06 11:30 | -0.90826 | 105.28946 | 31383 ft | 479 kts | 144° |
| 2026-05-06 11:30 | -0.93594 | 105.30820 | 31626 ft | 481 kts | 144° |
| 2026-05-06 11:30 | -0.96372 | 105.32700 | 31850 ft | 484 kts | 144° |
| 2026-05-06 11:30 | -0.99167 | 105.34591 | 32080 ft | 486 kts | 144° |
| 2026-05-06 11:31 | -1.01968 | 105.36487 | 32293 ft | 487 kts | 144° |
| 2026-05-06 11:31 | -1.04779 | 105.38390 | 32505 ft | 489 kts | 144° |
| 2026-05-06 11:31 | -1.07606 | 105.40303 | 32716 ft | 491 kts | 144° |
| 2026-05-06 11:31 | -1.10437 | 105.42219 | 32923 ft | 493 kts | 144° |
| 2026-05-06 11:32 | -1.13290 | 105.44150 | 33119 ft | 495 kts | 144° |
| 2026-05-06 11:32 | -1.16138 | 105.46078 | 33319 ft | 497 kts | 144° |
| 2026-05-06 11:32 | -1.19014 | 105.48025 | 33506 ft | 499 kts | 144° |
| 2026-05-06 11:32 | -1.21891 | 105.49972 | 33712 ft | 501 kts | 144° |
| 2026-05-06 11:33 | -1.24783 | 105.51930 | 33901 ft | 503 kts | 144° |
| 2026-05-06 11:33 | -1.27680 | 105.53891 | 34069 ft | 504 kts | 144° |
| 2026-05-06 11:33 | -1.30590 | 105.55861 | 34246 ft | 506 kts | 144° |
| 2026-05-06 11:33 | -1.33510 | 105.57838 | 34437 ft | 507 kts | 144° |
| 2026-05-06 11:34 | -1.36425 | 105.59811 | 34757 ft | 505 kts | 145° |
| 2026-05-06 11:34 | -1.39330 | 105.61778 | 35065 ft | 503 kts | 145° |
| 2026-05-06 11:34 | -1.42229 | 105.63740 | 35367 ft | 503 kts | 145° |
| 2026-05-06 11:34 | -1.45121 | 105.65698 | 35677 ft | 502 kts | 145° |
| 2026-05-06 11:35 | -1.48007 | 105.67652 | 35964 ft | 502 kts | 145° |
| 2026-05-06 11:35 | -1.50896 | 105.69609 | 36211 ft | 503 kts | 145° |
| 2026-05-06 11:35 | -1.53796 | 105.71573 | 36496 ft | 502 kts | 145° |
| 2026-05-06 11:35 | -1.56682 | 105.73527 | 36801 ft | 501 kts | 145° |
| 2026-05-06 11:36 | -1.59567 | 105.75480 | 37128 ft | 501 kts | 145° |
| 2026-05-06 11:36 | -1.62448 | 105.77432 | 37435 ft | 500 kts | 145° |
| 2026-05-06 11:36 | -1.65329 | 105.79383 | 37758 ft | 500 kts | 145° |
| 2026-05-06 11:36 | -1.68202 | 105.81329 | 38063 ft | 499 kts | 145° |
| 2026-05-06 11:37 | -1.71078 | 105.83276 | 38369 ft | 498 kts | 145° |
| 2026-05-06 11:37 | -1.73950 | 105.85222 | 38642 ft | 498 kts | 145° |
| 2026-05-06 11:37 | -1.76808 | 105.87158 | 38896 ft | 497 kts | 145° |
| 2026-05-06 11:37 | -1.79672 | 105.89098 | 39155 ft | 496 kts | 145° |
| 2026-05-06 11:38 | -1.82527 | 105.91032 | 39416 ft | 495 kts | 145° |
| 2026-05-06 11:38 | -1.85339 | 105.92937 | 39695 ft | 494 kts | 145° |
| 2026-05-06 11:38 | -1.88218 | 105.94887 | 39950 ft | 493 kts | 145° |
| 2026-05-06 11:38 | -1.91017 | 105.96784 | 40195 ft | 492 kts | 145° |
| 2026-05-06 11:39 | -1.93852 | 105.98704 | 40415 ft | 492 kts | 145° |
| 2026-05-06 11:39 | -1.96685 | 106.00624 | 40647 ft | 491 kts | 145° |
| 2026-05-06 11:39 | -1.99513 | 106.02540 | 40816 ft | 492 kts | 145° |
| 2026-05-06 11:40 | -2.05164 | 106.06369 | 40834 ft | 490 kts | 145° |
| 2026-05-06 11:40 | -2.10802 | 106.10191 | 40834 ft | 490 kts | 145° |
| 2026-05-06 11:41 | -2.16701 | 106.13597 | 40835 ft | 491 kts | 157° |
| 2026-05-06 11:41 | -2.23284 | 106.15373 | 40835 ft | 492 kts | 168° |
| 2026-05-06 11:42 | -2.30039 | 106.16563 | 40833 ft | 493 kts | 170° |
| 2026-05-06 11:42 | -2.36815 | 106.17673 | 40835 ft | 493 kts | 170° |
| 2026-05-06 11:43 | -2.43588 | 106.18803 | 40837 ft | 493 kts | 170° |
| 2026-05-06 11:43 | -2.50307 | 106.19947 | 40834 ft | 493 kts | 170° |
| 2026-05-06 11:44 | -2.60459 | 106.21686 | 40834 ft | 493 kts | 170° |
| 2026-05-06 11:44 | -2.67233 | 106.22846 | 40832 ft | 494 kts | 169° |
| 2026-05-06 11:45 | -2.74010 | 106.24006 | 40832 ft | 494 kts | 170° |
| 2026-05-06 11:45 | -2.80786 | 106.25166 | 40832 ft | 494 kts | 169° |
| 2026-05-06 11:46 | -2.87569 | 106.26327 | 40829 ft | 494 kts | 170° |
| 2026-05-06 11:46 | -2.94343 | 106.27487 | 40831 ft | 494 kts | 170° |
| 2026-05-06 11:47 | -3.01137 | 106.28651 | 40829 ft | 496 kts | 170° |
| 2026-05-06 11:47 | -3.07942 | 106.29816 | 40829 ft | 496 kts | 170° |
| 2026-05-06 11:48 | -3.14745 | 106.30981 | 40829 ft | 496 kts | 170° |
| 2026-05-06 11:48 | -3.21546 | 106.32146 | 40829 ft | 496 kts | 170° |
| 2026-05-06 11:49 | -3.28349 | 106.33311 | 40831 ft | 496 kts | 170° |
| 2026-05-06 11:49 | -3.35149 | 106.34476 | 40831 ft | 495 kts | 170° |
| 2026-05-06 11:50 | -3.41920 | 106.35637 | 40835 ft | 497 kts | 170° |
| 2026-05-06 11:50 | -3.48742 | 106.36806 | 40834 ft | 497 kts | 169° |
| 2026-05-06 11:51 | -3.55568 | 106.37977 | 40836 ft | 498 kts | 170° |
| 2026-05-06 11:51 | -3.62399 | 106.39148 | 40834 ft | 497 kts | 169° |
| 2026-05-06 11:52 | -3.69207 | 106.40401 | 40830 ft | 498 kts | 169° |
| 2026-05-06 11:52 | -3.76019 | 106.41687 | 40828 ft | 497 kts | 169° |
| 2026-05-06 11:53 | -3.82824 | 106.42965 | 40835 ft | 498 kts | 169° |
| 2026-05-06 11:53 | -3.89637 | 106.44241 | 40835 ft | 498 kts | 169° |
| 2026-05-06 11:54 | -3.96445 | 106.45516 | 40834 ft | 498 kts | 169° |
| 2026-05-06 11:54 | -4.03264 | 106.46793 | 40835 ft | 498 kts | 169° |
| 2026-05-06 11:55 | -4.10071 | 106.48067 | 40835 ft | 498 kts | 169° |
| 2026-05-06 11:55 | -4.16889 | 106.49344 | 40835 ft | 498 kts | 169° |
| 2026-05-06 11:56 | -4.23701 | 106.50620 | 40833 ft | 498 kts | 169° |
| 2026-05-06 11:56 | -4.30516 | 106.51896 | 40835 ft | 498 kts | 169° |
| 2026-05-06 11:57 | -4.37291 | 106.53166 | 40837 ft | 498 kts | 169° |
| 2026-05-06 11:57 | -4.44109 | 106.54443 | 40835 ft | 498 kts | 169° |
| 2026-05-06 11:58 | -4.50923 | 106.55721 | 40834 ft | 498 kts | 169° |
| 2026-05-06 11:58 | -4.57700 | 106.56991 | 40245 ft | 493 kts | 169° |
| 2026-05-06 11:59 | -4.61083 | 106.57626 | 39458 ft | 496 kts | 169° |
| 2026-05-06 11:59 | -4.64484 | 106.58264 | 38661 ft | 499 kts | 169° |
| 2026-05-06 11:59 | -4.67912 | 106.58906 | 37827 ft | 501 kts | 169° |
| 2026-05-06 11:59 | -4.71336 | 106.59548 | 37025 ft | 501 kts | 169° |
| 2026-05-06 12:00 | -4.74771 | 106.60192 | 36200 ft | 503 kts | 169° |
| 2026-05-06 12:00 | -4.78211 | 106.60836 | 35377 ft | 503 kts | 168° |
| 2026-05-06 12:00 | -4.80494 | 106.61265 | 34848 ft | 504 kts | 168° |
| 2026-05-06 12:00 | -4.85099 | 106.62191 | 33731 ft | 505 kts | 164° |
| 2026-05-06 12:01 | -4.87314 | 106.62902 | 33084 ft | 505 kts | 157° |
| 2026-05-06 12:01 | -4.91624 | 106.64790 | 31744 ft | 507 kts | 154° |
| 2026-05-06 12:01 | -4.93747 | 106.65767 | 31083 ft | 509 kts | 154° |
| 2026-05-06 12:01 | -4.96973 | 106.67252 | 30109 ft | 511 kts | 154° |
| 2026-05-06 12:02 | -5.00206 | 106.68737 | 29045 ft | 512 kts | 154° |
| 2026-05-06 12:02 | -5.03444 | 106.70221 | 28265 ft | 507 kts | 154° |
| 2026-05-06 12:02 | -5.06616 | 106.71673 | 27886 ft | 494 kts | 154° |
| 2026-05-06 12:02 | -5.09699 | 106.73083 | 27538 ft | 482 kts | 154° |
| 2026-05-06 12:03 | -5.12710 | 106.74460 | 27276 ft | 468 kts | 154° |
| 2026-05-06 12:03 | -5.15638 | 106.75800 | 26991 ft | 456 kts | 154° |
| 2026-05-06 12:03 | -5.18489 | 106.77106 | 26710 ft | 445 kts | 154° |
| 2026-05-06 12:03 | -5.21282 | 106.78380 | 26308 ft | 437 kts | 154° |
| 2026-05-06 12:04 | -5.23978 | 106.79595 | 25514 ft | 425 kts | 154° |
| 2026-05-06 12:04 | -5.26698 | 106.80822 | 24475 ft | 421 kts | 154° |
| 2026-05-06 12:04 | -5.29329 | 106.82010 | 23888 ft | 406 kts | 154° |
| 2026-05-06 12:04 | -5.31812 | 106.83132 | 23415 ft | 390 kts | 154° |
| 2026-05-06 12:05 | -5.34243 | 106.84231 | 22871 ft | 375 kts | 154° |
| 2026-05-06 12:05 | -5.36622 | 106.85308 | 22386 ft | 376 kts | 154° |
| 2026-05-06 12:05 | -5.39009 | 106.86391 | 21984 ft | 376 kts | 154° |
| 2026-05-06 12:05 | -5.41361 | 106.87456 | 21837 ft | 365 kts | 154° |
| 2026-05-06 12:06 | -5.43674 | 106.88502 | 21570 ft | 358 kts | 153° |
| 2026-05-06 12:06 | -5.45987 | 106.89351 | 21103 ft | 360 kts | 165° |
| 2026-05-06 12:06 | -5.48507 | 106.89495 | 20767 ft | 372 kts | 185° |
| 2026-05-06 12:06 | -5.51020 | 106.88816 | 20371 ft | 374 kts | 199° |
| 2026-05-06 12:07 | -5.53457 | 106.87877 | 19798 ft | 376 kts | 200° |
| 2026-05-06 12:07 | -5.55890 | 106.86914 | 19272 ft | 375 kts | 200° |
| 2026-05-06 12:07 | -5.58315 | 106.85962 | 18813 ft | 373 kts | 200° |
| 2026-05-06 12:07 | -5.60723 | 106.85023 | 18370 ft | 370 kts | 200° |
| 2026-05-06 12:08 | -5.63122 | 106.84092 | 17850 ft | 368 kts | 199° |
| 2026-05-06 12:08 | -5.65501 | 106.83172 | 17360 ft | 365 kts | 199° |
| 2026-05-06 12:08 | -5.67840 | 106.82268 | 16794 ft | 354 kts | 199° |
| 2026-05-06 12:08 | -5.70116 | 106.81388 | 16221 ft | 349 kts | 199° |
| 2026-05-06 12:09 | -5.72380 | 106.80515 | 15737 ft | 348 kts | 199° |
| 2026-05-06 12:09 | -5.74635 | 106.79648 | 15283 ft | 346 kts | 199° |
| 2026-05-06 12:09 | -5.76870 | 106.78787 | 14825 ft | 343 kts | 199° |
| 2026-05-06 12:09 | -5.79093 | 106.77928 | 14393 ft | 341 kts | 199° |
| 2026-05-06 12:10 | -5.81275 | 106.77084 | 13959 ft | 340 kts | 199° |
| 2026-05-06 12:10 | -5.83471 | 106.76237 | 13523 ft | 336 kts | 199° |
| 2026-05-06 12:10 | -5.85582 | 106.75202 | 13011 ft | 338 kts | 212° |
| 2026-05-06 12:10 | -5.87187 | 106.73504 | 12569 ft | 338 kts | 238° |
| 2026-05-06 12:11 | -5.88177 | 106.71373 | 12289 ft | 337 kts | 246° |
| 2026-05-06 12:11 | -5.89038 | 106.69186 | 11936 ft | 337 kts | 247° |
| 2026-05-06 12:11 | -5.89895 | 106.67003 | 11550 ft | 335 kts | 247° |
| 2026-05-06 12:11 | -5.90752 | 106.64834 | 11153 ft | 333 kts | 247° |
| 2026-05-06 12:12 | -5.91609 | 106.62675 | 10775 ft | 332 kts | 247° |
| 2026-05-06 12:12 | -5.92465 | 106.60526 | 10412 ft | 329 kts | 247° |
| 2026-05-06 12:12 | -5.93301 | 106.58432 | 10195 ft | 318 kts | 247° |
| 2026-05-06 12:12 | -5.94120 | 106.56402 | 9955 ft | 309 kts | 246° |
| 2026-05-06 12:13 | -5.94919 | 106.54442 | 9584 ft | 306 kts | 246° |
| 2026-05-06 12:13 | -5.95720 | 106.52478 | 9210 ft | 301 kts | 246° |
| 2026-05-06 12:13 | -5.96500 | 106.50561 | 9059 ft | 294 kts | 246° |
| 2026-05-06 12:13 | -5.97275 | 106.48659 | 8887 ft | 294 kts | 246° |
| 2026-05-06 12:14 | -5.98048 | 106.46759 | 8682 ft | 293 kts | 246° |
| 2026-05-06 12:14 | -5.98818 | 106.44869 | 8472 ft | 292 kts | 246° |
| 2026-05-06 12:14 | -5.99584 | 106.42985 | 8262 ft | 291 kts | 246° |
| 2026-05-06 12:14 | -6.00348 | 106.41107 | 8055 ft | 290 kts | 246° |
| 2026-05-06 12:15 | -6.01110 | 106.39235 | 7831 ft | 289 kts | 246° |
| 2026-05-06 12:15 | -6.01856 | 106.37399 | 7681 ft | 279 kts | 246° |
| 2026-05-06 12:15 | -6.02576 | 106.35629 | 7530 ft | 268 kts | 246° |
| 2026-05-06 12:15 | -6.03273 | 106.33924 | 7326 ft | 261 kts | 246° |
| 2026-05-06 12:16 | -6.04246 | 106.32441 | 7120 ft | 250 kts | 219° |
| 2026-05-06 12:16 | -6.05762 | 106.31724 | 6898 ft | 240 kts | 184° |
| 2026-05-06 12:16 | -6.07391 | 106.31813 | 6731 ft | 231 kts | 167° |
| 2026-05-06 12:16 | -6.08975 | 106.32100 | 6621 ft | 234 kts | 166° |
| 2026-05-06 12:17 | -6.10582 | 106.32406 | 6452 ft | 236 kts | 166° |
| 2026-05-06 12:17 | -6.12192 | 106.32704 | 6218 ft | 235 kts | 167° |
| 2026-05-06 12:17 | -6.13799 | 106.32995 | 5998 ft | 234 kts | 167° |
| 2026-05-06 12:17 | -6.15397 | 106.33281 | 5759 ft | 234 kts | 167° |
| 2026-05-06 12:18 | -6.16995 | 106.33566 | 5516 ft | 233 kts | 167° |
| 2026-05-06 12:18 | -6.18589 | 106.33850 | 5286 ft | 232 kts | 167° |
| 2026-05-06 12:18 | -6.20110 | 106.34314 | 5054 ft | 228 kts | 149° |
| 2026-05-06 12:18 | -6.21259 | 106.35367 | 4884 ft | 225 kts | 124° |
| 2026-05-06 12:19 | -6.22122 | 106.36682 | 4748 ft | 226 kts | 121° |
| 2026-05-06 12:19 | -6.22939 | 106.38023 | 4600 ft | 225 kts | 121° |
| 2026-05-06 12:19 | -6.23603 | 106.39438 | 4447 ft | 224 kts | 104° |
| 2026-05-06 12:19 | -6.23544 | 106.40977 | 4328 ft | 223 kts | 74° |
| 2026-05-06 12:20 | -6.22990 | 106.42426 | 4183 ft | 220 kts | 66° |
| 2026-05-06 12:20 | -6.22405 | 106.43800 | 4094 ft | 208 kts | 68° |
| 2026-05-06 12:20 | -6.21867 | 106.45124 | 3911 ft | 202 kts | 69° |
| 2026-05-06 12:20 | -6.21351 | 106.46435 | 3653 ft | 201 kts | 68° |
| 2026-05-06 12:21 | -6.20838 | 106.47734 | 3395 ft | 198 kts | 68° |
| 2026-05-06 12:21 | -6.20331 | 106.49012 | 3120 ft | 195 kts | 68° |
| 2026-05-06 12:21 | -6.19835 | 106.50264 | 2865 ft | 190 kts | 69° |
| 2026-05-06 12:21 | -6.19353 | 106.51482 | 2620 ft | 185 kts | 69° |
| 2026-05-06 12:22 | -6.18894 | 106.52639 | 2370 ft | 175 kts | 69° |
| 2026-05-06 12:22 | -6.18460 | 106.53735 | 2149 ft | 162 kts | 68° |
| 2026-05-06 12:22 | -6.18057 | 106.54750 | 1955 ft | 151 kts | 69° |
| 2026-05-06 12:22 | -6.17685 | 106.55693 | 1753 ft | 140 kts | 69° |
| 2026-05-06 12:23 | -6.17357 | 106.56585 | 1551 ft | 131 kts | 69° |
| 2026-05-06 12:23 | -6.17032 | 106.57427 | 1381 ft | 126 kts | 67° |
| 2026-05-06 12:23 | -6.16698 | 106.58245 | 1239 ft | 128 kts | 66° |
| 2026-05-06 12:23 | -6.16355 | 106.59075 | 1099 ft | 129 kts | 67° |
| 2026-05-06 12:24 | -6.16000 | 106.59920 | 904 ft | 132 kts | 68° |
| 2026-05-06 12:24 | -6.15665 | 106.60788 | 774 ft | 133 kts | 69° |
| 2026-05-06 12:24 | -6.15342 | 106.61658 | 639 ft | 133 kts | 69° |
| 2026-05-06 12:24 | -6.15000 | 106.62521 | 441 ft | 133 kts | 68° |
| 2026-05-06 12:25 | -6.14650 | 106.63364 | 292 ft | 128 kts | 67° |
| 2026-05-06 12:25 | -6.14325 | 106.64174 | 116 ft | 122 kts | 68° |
| 2026-05-06 12:25 | -6.14018 | 106.64937 | 37 ft | 109 kts | 68° |
| 2026-05-06 12:25 | -6.13824 | 106.65423 | 35 ft | 45 kts | 68° |
| 2026-05-06 12:26 | -6.13717 | 106.65690 | 33 ft | 40 kts | 68° |
| 2026-05-06 12:26 | -6.13617 | 106.65941 | 33 ft | 38 kts | 69° |
| 2026-05-06 12:26 | -6.13516 | 106.66163 | 33 ft | 32 kts | 51° |
| 2026-05-06 12:26 | -6.13357 | 106.66292 | 33 ft | 17 kts | 18° |
| 2026-05-06 12:27 | -6.13308 | 106.66284 | 33 ft | 7 kts | 341° |
| 2026-05-06 12:27 | -6.13305 | 106.66283 | 33 ft | 0 kts | 341° |
| 2026-05-06 12:32 | -6.13277 | 106.66273 | 33 ft | 11 kts | 339° |
| 2026-05-06 12:32 | -6.13203 | 106.66281 | 33 ft | 11 kts | 43° |
| 2026-05-06 12:32 | -6.13149 | 106.66381 | 32 ft | 21 kts | 69° |
| 2026-05-06 12:32 | -6.13086 | 106.66536 | 32 ft | 25 kts | 68° |
| 2026-05-06 12:33 | -6.13017 | 106.66709 | 31 ft | 28 kts | 67° |
| 2026-05-06 12:33 | -6.12941 | 106.66897 | 30 ft | 30 kts | 68° |
| 2026-05-06 12:33 | -6.12862 | 106.67099 | 30 ft | 32 kts | 68° |
| 2026-05-06 12:33 | -6.12787 | 106.67291 | 29 ft | 13 kts | 69° |
| 2026-05-06 12:34 | -6.12798 | 106.67357 | 29 ft | 12 kts | 134° |
| 2026-05-06 12:34 | -6.12817 | 106.67452 | 29 ft | 15 kts | 63° |
| 2026-05-06 12:34 | -6.12761 | 106.67550 | 29 ft | 18 kts | 59° |
| 2026-05-06 12:34 | -6.12693 | 106.67667 | 29 ft | 23 kts | 59° |
| 2026-05-06 12:35 | -6.12576 | 106.67799 | 29 ft | 27 kts | 33° |
| 2026-05-06 12:35 | -6.12403 | 106.67851 | 29 ft | 26 kts | 0° |
| 2026-05-06 12:35 | -6.12218 | 106.67805 | 29 ft | 28 kts | 339° |